DLH8JV EDDF-EDDC
Flight info
| Callsign | DLH8JV |
|---|---|
| Flight time | 0h 37m |
| Altitude | 23000 |
| Route | SULUS7S/18 SULUS L984 KULOK Z715 ABKIS Q240 DRN |
| Aircraft | A319/M-SDE2E3FGIJ1LORWXYZ/HB1 |
Departure
| Time | 2026-05-04 14:49 |
|---|---|
| Airport | Frankfurt Main Airport (EDDF) |
Arrival
| Time | 2026-05-04 15:27 |
|---|---|
| Airport | Dresden Airport (EDDC) |
| Time | Latitude | Longitude | Altitude | Speed | Heading |
|---|---|---|---|---|---|
| 2026-05-04 14:14 | 50.04532 | 8.56589 | 364 ft | 0 kts | 115° |
| 2026-05-04 14:30 | 50.04539 | 8.56564 | 363 ft | 4 kts | 116° |
| 2026-05-04 14:31 | 50.04552 | 8.56527 | 365 ft | 4 kts | 120° |
| 2026-05-04 14:31 | 50.04586 | 8.56468 | 360 ft | 4 kts | 186° |
| 2026-05-04 14:32 | 50.04569 | 8.56453 | 360 ft | 0 kts | 205° |
| 2026-05-04 14:38 | 50.04567 | 8.56452 | 356 ft | 1 kts | 205° |
| 2026-05-04 14:38 | 50.04553 | 8.56442 | 360 ft | 3 kts | 205° |
| 2026-05-04 14:39 | 50.04530 | 8.56417 | 360 ft | 5 kts | 223° |
| 2026-05-04 14:39 | 50.04511 | 8.56364 | 356 ft | 6 kts | 248° |
| 2026-05-04 14:39 | 50.04493 | 8.56292 | 358 ft | 8 kts | 249° |
| 2026-05-04 14:40 | 50.04448 | 8.56098 | 359 ft | 10 kts | 249° |
| 2026-05-04 14:40 | 50.04407 | 8.56027 | 359 ft | 6 kts | 200° |
| 2026-05-04 14:40 | 50.04365 | 8.56042 | 359 ft | 7 kts | 159° |
| 2026-05-04 14:40 | 50.04355 | 8.56049 | 358 ft | 1 kts | 159° |
| 2026-05-04 14:41 | 50.04341 | 8.56058 | 363 ft | 5 kts | 159° |
| 2026-05-04 14:41 | 50.04294 | 8.56069 | 355 ft | 9 kts | 189° |
| 2026-05-04 14:41 | 50.04233 | 8.55914 | 357 ft | 4 kts | 249° |
| 2026-05-04 14:42 | 50.04222 | 8.55868 | 361 ft | 0 kts | 249° |
| 2026-05-04 14:43 | 50.04220 | 8.55862 | 361 ft | 3 kts | 250° |
| 2026-05-04 14:43 | 50.04209 | 8.55811 | 355 ft | 7 kts | 252° |
| 2026-05-04 14:43 | 50.04191 | 8.55736 | 356 ft | 8 kts | 244° |
| 2026-05-04 14:44 | 50.04166 | 8.55638 | 359 ft | 11 kts | 249° |
| 2026-05-04 14:44 | 50.04137 | 8.55514 | 355 ft | 13 kts | 250° |
| 2026-05-04 14:44 | 50.04104 | 8.55375 | 358 ft | 14 kts | 249° |
| 2026-05-04 14:44 | 50.04068 | 8.55227 | 355 ft | 15 kts | 250° |
| 2026-05-04 14:45 | 50.04030 | 8.55066 | 358 ft | 17 kts | 249° |
| 2026-05-04 14:45 | 50.03987 | 8.54887 | 355 ft | 19 kts | 250° |
| 2026-05-04 14:45 | 50.03940 | 8.54688 | 350 ft | 21 kts | 250° |
| 2026-05-04 14:45 | 50.03886 | 8.54466 | 350 ft | 23 kts | 249° |
| 2026-05-04 14:46 | 50.03806 | 8.54244 | 347 ft | 24 kts | 243° |
| 2026-05-04 14:46 | 50.03745 | 8.53995 | 353 ft | 25 kts | 249° |
| 2026-05-04 14:46 | 50.03682 | 8.53734 | 342 ft | 26 kts | 249° |
| 2026-05-04 14:46 | 50.03619 | 8.53481 | 337 ft | 23 kts | 249° |
| 2026-05-04 14:47 | 50.03571 | 8.53282 | 337 ft | 17 kts | 249° |
| 2026-05-04 14:47 | 50.03531 | 8.53111 | 338 ft | 18 kts | 250° |
| 2026-05-04 14:47 | 50.03486 | 8.52924 | 336 ft | 19 kts | 248° |
| 2026-05-04 14:47 | 50.03437 | 8.52730 | 336 ft | 18 kts | 249° |
| 2026-05-04 14:48 | 50.03392 | 8.52605 | 334 ft | 7 kts | 209° |
| 2026-05-04 14:48 | 50.03337 | 8.52591 | 336 ft | 9 kts | 177° |
| 2026-05-04 14:48 | 50.03319 | 8.52593 | 336 ft | 0 kts | 177° |
| 2026-05-04 14:49 | 50.03298 | 8.52594 | 334 ft | 12 kts | 177° |
| 2026-05-04 14:49 | 50.02907 | 8.52597 | 331 ft | 97 kts | 179° |
| 2026-05-04 14:49 | 50.01997 | 8.52607 | 352 ft | 160 kts | 179° |
| 2026-05-04 14:49 | 50.00876 | 8.52617 | 1017 ft | 161 kts | 181° |
| 2026-05-04 14:50 | 49.99747 | 8.52622 | 1806 ft | 167 kts | 184° |
| 2026-05-04 14:50 | 49.98507 | 8.52624 | 2356 ft | 189 kts | 184° |
| 2026-05-04 14:50 | 49.97122 | 8.52961 | 2790 ft | 218 kts | 159° |
| 2026-05-04 14:50 | 49.95942 | 8.54547 | 3261 ft | 242 kts | 123° |
| 2026-05-04 14:51 | 49.95111 | 8.56881 | 3851 ft | 250 kts | 119° |
| 2026-05-04 14:51 | 49.94332 | 8.59257 | 4123 ft | 249 kts | 110° |
| 2026-05-04 14:51 | 49.94020 | 8.61988 | 4862 ft | 268 kts | 94° |
| 2026-05-04 14:51 | 49.93891 | 8.64943 | 5762 ft | 278 kts | 95° |
| 2026-05-04 14:52 | 49.93489 | 8.67876 | 6916 ft | 277 kts | 114° |
| 2026-05-04 14:52 | 49.92540 | 8.70457 | 8046 ft | 276 kts | 131° |
| 2026-05-04 14:52 | 49.91136 | 8.72466 | 9146 ft | 275 kts | 147° |
| 2026-05-04 14:52 | 49.89575 | 8.74199 | 10214 ft | 279 kts | 144° |
| 2026-05-04 14:53 | 49.88175 | 8.76368 | 10711 ft | 296 kts | 131° |
| 2026-05-04 14:53 | 49.87022 | 8.79245 | 10920 ft | 332 kts | 122° |
| 2026-05-04 14:53 | 49.85868 | 8.82471 | 10974 ft | 349 kts | 121° |
| 2026-05-04 14:53 | 49.84688 | 8.85779 | 10976 ft | 352 kts | 122° |
| 2026-05-04 14:54 | 49.83515 | 8.89060 | 11058 ft | 357 kts | 122° |
| 2026-05-04 14:54 | 49.82295 | 8.92447 | 11912 ft | 360 kts | 122° |
| 2026-05-04 14:54 | 49.81066 | 8.95842 | 12841 ft | 364 kts | 122° |
| 2026-05-04 14:54 | 49.79813 | 8.99278 | 13740 ft | 369 kts | 122° |
| 2026-05-04 14:55 | 49.78536 | 9.02771 | 14491 ft | 375 kts | 122° |
| 2026-05-04 14:55 | 49.77244 | 9.06303 | 15242 ft | 380 kts | 122° |
| 2026-05-04 14:55 | 49.76124 | 9.10053 | 15994 ft | 389 kts | 112° |
| 2026-05-04 14:55 | 49.75402 | 9.14124 | 16729 ft | 396 kts | 106° |
| 2026-05-04 14:56 | 49.74745 | 9.18305 | 17458 ft | 401 kts | 106° |
| 2026-05-04 14:56 | 49.74075 | 9.22519 | 18191 ft | 407 kts | 107° |
| 2026-05-04 14:56 | 49.73397 | 9.26805 | 18815 ft | 413 kts | 104° |
| 2026-05-04 14:56 | 49.73208 | 9.31285 | 19440 ft | 424 kts | 87° |
| 2026-05-04 14:57 | 49.73767 | 9.35736 | 20052 ft | 430 kts | 78° |
| 2026-05-04 14:57 | 49.74477 | 9.40251 | 20684 ft | 434 kts | 78° |
| 2026-05-04 14:57 | 49.75206 | 9.44812 | 21285 ft | 438 kts | 78° |
| 2026-05-04 14:57 | 49.75942 | 9.49408 | 21869 ft | 443 kts | 78° |
| 2026-05-04 14:58 | 49.76438 | 9.52531 | 22260 ft | 445 kts | 78° |
| 2026-05-04 14:58 | 49.77178 | 9.57225 | 22793 ft | 450 kts | 78° |
| 2026-05-04 14:58 | 49.77913 | 9.61930 | 22955 ft | 453 kts | 79° |
| 2026-05-04 14:58 | 49.78652 | 9.66697 | 22988 ft | 469 kts | 79° |
| 2026-05-04 14:59 | 49.79419 | 9.71659 | 22979 ft | 476 kts | 78° |
| 2026-05-04 14:59 | 49.80191 | 9.76647 | 22982 ft | 477 kts | 78° |
| 2026-05-04 14:59 | 49.81728 | 9.86646 | 22975 ft | 477 kts | 79° |
| 2026-05-04 15:00 | 49.82493 | 9.91650 | 22976 ft | 477 kts | 78° |
| 2026-05-04 15:00 | 49.83255 | 9.96653 | 22972 ft | 477 kts | 78° |
| 2026-05-04 15:00 | 49.84016 | 10.01656 | 22970 ft | 477 kts | 78° |
| 2026-05-04 15:01 | 49.85532 | 10.11671 | 22963 ft | 477 kts | 78° |
| 2026-05-04 15:01 | 49.86277 | 10.16619 | 22960 ft | 477 kts | 78° |
| 2026-05-04 15:01 | 49.87029 | 10.21624 | 22963 ft | 477 kts | 78° |
| 2026-05-04 15:01 | 49.87780 | 10.26630 | 22957 ft | 477 kts | 79° |
| 2026-05-04 15:02 | 49.88527 | 10.31642 | 22955 ft | 477 kts | 79° |
| 2026-05-04 15:02 | 49.89273 | 10.36654 | 22956 ft | 477 kts | 79° |
| 2026-05-04 15:02 | 49.90017 | 10.41654 | 22956 ft | 477 kts | 79° |
| 2026-05-04 15:02 | 49.90759 | 10.46660 | 22964 ft | 477 kts | 79° |
| 2026-05-04 15:03 | 49.91500 | 10.51682 | 22961 ft | 476 kts | 79° |
| 2026-05-04 15:03 | 49.92233 | 10.56697 | 22962 ft | 477 kts | 79° |
| 2026-05-04 15:03 | 49.92961 | 10.61702 | 22969 ft | 477 kts | 79° |
| 2026-05-04 15:03 | 49.93692 | 10.66717 | 22969 ft | 477 kts | 79° |
| 2026-05-04 15:04 | 49.94426 | 10.71750 | 22971 ft | 477 kts | 79° |
| 2026-05-04 15:04 | 49.95155 | 10.76767 | 22974 ft | 476 kts | 79° |
| 2026-05-04 15:04 | 49.95884 | 10.81791 | 22970 ft | 476 kts | 79° |
| 2026-05-04 15:04 | 49.96607 | 10.86807 | 22972 ft | 476 kts | 79° |
| 2026-05-04 15:05 | 49.97328 | 10.91822 | 22978 ft | 476 kts | 79° |
| 2026-05-04 15:05 | 49.98044 | 10.96834 | 22979 ft | 475 kts | 79° |
| 2026-05-04 15:05 | 49.98754 | 11.01850 | 22980 ft | 475 kts | 79° |
| 2026-05-04 15:05 | 49.99464 | 11.06876 | 22979 ft | 475 kts | 79° |
| 2026-05-04 15:06 | 50.00171 | 11.11878 | 22985 ft | 475 kts | 79° |
| 2026-05-04 15:06 | 50.00880 | 11.16896 | 22991 ft | 475 kts | 79° |
| 2026-05-04 15:06 | 50.01575 | 11.21833 | 22996 ft | 474 kts | 79° |
| 2026-05-04 15:07 | 50.02989 | 11.31916 | 22984 ft | 474 kts | 79° |
| 2026-05-04 15:07 | 50.03687 | 11.36936 | 22987 ft | 474 kts | 79° |
| 2026-05-04 15:07 | 50.04371 | 11.41882 | 22984 ft | 474 kts | 79° |
| 2026-05-04 15:07 | 50.05070 | 11.46952 | 22993 ft | 474 kts | 79° |
| 2026-05-04 15:08 | 50.05752 | 11.51896 | 22989 ft | 474 kts | 79° |
| 2026-05-04 15:08 | 50.06526 | 11.56884 | 22997 ft | 474 kts | 73° |
| 2026-05-04 15:08 | 50.07745 | 11.61667 | 22994 ft | 475 kts | 64° |
| 2026-05-04 15:08 | 50.09420 | 11.66095 | 22988 ft | 475 kts | 55° |
| 2026-05-04 15:09 | 50.11513 | 11.70088 | 22987 ft | 475 kts | 46° |
| 2026-05-04 15:09 | 50.13778 | 11.73840 | 22998 ft | 475 kts | 46° |
| 2026-05-04 15:09 | 50.16040 | 11.77592 | 22998 ft | 475 kts | 46° |
| 2026-05-04 15:10 | 50.20167 | 11.85616 | 22992 ft | 474 kts | 58° |
| 2026-05-04 15:10 | 50.21887 | 11.90013 | 22986 ft | 474 kts | 58° |
| 2026-05-04 15:10 | 50.25310 | 11.98748 | 22993 ft | 474 kts | 58° |
| 2026-05-04 15:11 | 50.27050 | 12.03146 | 22985 ft | 474 kts | 57° |
| 2026-05-04 15:11 | 50.28851 | 12.07462 | 22984 ft | 474 kts | 56° |
| 2026-05-04 15:11 | 50.30718 | 12.11717 | 22981 ft | 474 kts | 54° |
| 2026-05-04 15:11 | 50.32613 | 12.15930 | 22977 ft | 473 kts | 54° |
| 2026-05-04 15:12 | 50.34488 | 12.20189 | 22974 ft | 473 kts | 58° |
| 2026-05-04 15:12 | 50.36071 | 12.24627 | 22971 ft | 473 kts | 61° |
| 2026-05-04 15:12 | 50.37626 | 12.29169 | 22968 ft | 473 kts | 62° |
| 2026-05-04 15:12 | 50.39165 | 12.33739 | 22963 ft | 473 kts | 62° |
| 2026-05-04 15:13 | 50.40692 | 12.38314 | 22961 ft | 473 kts | 62° |
| 2026-05-04 15:13 | 50.42214 | 12.42883 | 22959 ft | 473 kts | 62° |
| 2026-05-04 15:13 | 50.43728 | 12.47436 | 22966 ft | 463 kts | 62° |
| 2026-05-04 15:13 | 50.45198 | 12.51857 | 22977 ft | 450 kts | 62° |
| 2026-05-04 15:14 | 50.46625 | 12.56143 | 22977 ft | 447 kts | 62° |
| 2026-05-04 15:14 | 50.48070 | 12.60478 | 22980 ft | 447 kts | 62° |
| 2026-05-04 15:14 | 50.49510 | 12.64802 | 22976 ft | 447 kts | 62° |
| 2026-05-04 15:14 | 50.50947 | 12.69128 | 22979 ft | 447 kts | 62° |
| 2026-05-04 15:15 | 50.52384 | 12.73471 | 22808 ft | 446 kts | 62° |
| 2026-05-04 15:15 | 50.53805 | 12.77777 | 21394 ft | 445 kts | 62° |
| 2026-05-04 15:15 | 50.55239 | 12.82128 | 19646 ft | 451 kts | 63° |
| 2026-05-04 15:16 | 50.58119 | 12.90901 | 16447 ft | 451 kts | 63° |
| 2026-05-04 15:16 | 50.59542 | 12.95248 | 15109 ft | 443 kts | 63° |
| 2026-05-04 15:16 | 50.62389 | 13.03661 | 12806 ft | 425 kts | 57° |
| 2026-05-04 15:17 | 50.64169 | 13.07181 | 12526 ft | 395 kts | 46° |
| 2026-05-04 15:17 | 50.67932 | 13.12576 | 12245 ft | 340 kts | 41° |
| 2026-05-04 15:17 | 50.69656 | 13.14990 | 11922 ft | 324 kts | 41° |
| 2026-05-04 15:18 | 50.71328 | 13.17329 | 11377 ft | 319 kts | 41° |
| 2026-05-04 15:18 | 50.72957 | 13.19613 | 10796 ft | 315 kts | 41° |
| 2026-05-04 15:18 | 50.74589 | 13.21900 | 10213 ft | 312 kts | 40° |
| 2026-05-04 15:19 | 50.77800 | 13.26390 | 9781 ft | 306 kts | 40° |
| 2026-05-04 15:19 | 50.79405 | 13.28628 | 9332 ft | 310 kts | 40° |
| 2026-05-04 15:19 | 50.82589 | 13.33088 | 8613 ft | 303 kts | 41° |
| 2026-05-04 15:20 | 50.84155 | 13.35295 | 8217 ft | 301 kts | 41° |
| 2026-05-04 15:20 | 50.85711 | 13.37490 | 7840 ft | 298 kts | 41° |
| 2026-05-04 15:20 | 50.87253 | 13.39665 | 7452 ft | 295 kts | 41° |
| 2026-05-04 15:20 | 50.88776 | 13.41813 | 7095 ft | 289 kts | 41° |
| 2026-05-04 15:21 | 50.90243 | 13.43886 | 6539 ft | 284 kts | 41° |
| 2026-05-04 15:21 | 50.91687 | 13.45926 | 6278 ft | 268 kts | 41° |
| 2026-05-04 15:21 | 50.94251 | 13.49592 | 6012 ft | 230 kts | 43° |
| 2026-05-04 15:22 | 50.95371 | 13.51321 | 5732 ft | 221 kts | 44° |
| 2026-05-04 15:22 | 50.96414 | 13.53124 | 5200 ft | 224 kts | 49° |
| 2026-05-04 15:22 | 50.98641 | 13.56540 | 4313 ft | 217 kts | 40° |
| 2026-05-04 15:23 | 50.99753 | 13.58058 | 4020 ft | 205 kts | 40° |
| 2026-05-04 15:23 | 51.00810 | 13.59498 | 3756 ft | 196 kts | 40° |
| 2026-05-04 15:23 | 51.01824 | 13.60883 | 3507 ft | 188 kts | 40° |
| 2026-05-04 15:23 | 51.02797 | 13.62213 | 3265 ft | 181 kts | 40° |
| 2026-05-04 15:24 | 51.04644 | 13.64738 | 2802 ft | 167 kts | 40° |
| 2026-05-04 15:24 | 51.06290 | 13.66992 | 2397 ft | 150 kts | 39° |
| 2026-05-04 15:25 | 51.07063 | 13.68051 | 2190 ft | 144 kts | 39° |
| 2026-05-04 15:25 | 51.07812 | 13.69076 | 2010 ft | 140 kts | 39° |
| 2026-05-04 15:25 | 51.08549 | 13.70087 | 1826 ft | 139 kts | 40° |
| 2026-05-04 15:26 | 51.09999 | 13.72077 | 1446 ft | 136 kts | 39° |
| 2026-05-04 15:26 | 51.10715 | 13.73061 | 1271 ft | 135 kts | 39° |
| 2026-05-04 15:26 | 51.12118 | 13.74994 | 920 ft | 132 kts | 38° |
| 2026-05-04 15:27 | 51.12794 | 13.75921 | 773 ft | 132 kts | 38° |
| 2026-05-04 15:27 | 51.13752 | 13.77233 | 727 ft | 38 kts | 41° |
| 2026-05-04 15:28 | 51.13896 | 13.77516 | 721 ft | 12 kts | 114° |
| 2026-05-04 15:28 | 51.13857 | 13.77592 | 718 ft | 11 kts | 131° |
| 2026-05-04 15:28 | 51.13817 | 13.77663 | 715 ft | 0 kts | 132° |
| 2026-05-04 15:29 | 51.13816 | 13.77665 | 715 ft | 2 kts | 132° |
| 2026-05-04 15:30 | 51.13665 | 13.77599 | 717 ft | 6 kts | 222° |
| 2026-05-04 15:30 | 51.13544 | 13.77428 | 725 ft | 11 kts | 220° |
| 2026-05-04 15:31 | 51.13462 | 13.77316 | 731 ft | 6 kts | 220° |
| 2026-05-04 15:31 | 51.13425 | 13.77265 | 733 ft | 7 kts | 220° |
| 2026-05-04 15:32 | 51.13192 | 13.76943 | 744 ft | 18 kts | 221° |
| 2026-05-04 15:32 | 51.13012 | 13.76694 | 748 ft | 17 kts | 220° |
| 2026-05-04 15:33 | 51.12843 | 13.76464 | 754 ft | 14 kts | 219° |
| 2026-05-04 15:34 | 51.12685 | 13.76625 | 752 ft | 1 kts | 194° |
| 2026-05-04 15:34 | 51.12672 | 13.76608 | 752 ft | 4 kts | 225° |
| 2026-05-04 15:34 | 51.12626 | 13.76539 | 750 ft | 0 kts | 219° |
| 2026-05-04 15:35 | 51.12626 | 13.76538 | 750 ft | 0 kts | 219° |